Sylvan Lake, Canada
Current Conditions -  °F | °C
As of 7:00 PM on Tuesday 21 Oct 2014 (Local Time) from CYQF Reporting Station
Broken Clouds Broken Clouds  
Wind Chill:   Ceiling: 25000
Heat Index:   Visibility: 15mi
Dew Point:   Wind: 2mph
Humidity: 71%   Direction: 160°SSE
Pressure: 29.7"   Gusts: NA
Location:  52.31°N, 114.09°W
Report Text: CYQF 220100Z 16002KT 15SM FEW100 BKN250 08/03 A2970 RMK AC1CI4 SLP081 DENSITY ALT 3000FT
Loading
Personal Weather Stations






























Interactive Weather Map
Tropical Storm Tracking
New forecast layout! Learn more

10-Day Weather Forecast

Advertisements
Track Severe Weather on mobile